createdAt,value
2022-12-31T14:20:06.815Z,100310.97
2022-12-31T14:23:00.270Z,100317.19
2022-12-31T14:25:33.024Z,100334.25
2022-12-31T14:28:03.040Z,100319.81
2022-12-31T14:30:34.132Z,100320.72
2022-12-31T14:33:25.454Z,100319.31
2022-12-31T14:36:09.992Z,100317.97
2022-12-31T14:38:52.544Z,100313.09
2022-12-31T14:41:39.119Z,100319.31
2022-12-31T14:44:26.893Z,100324.91
2022-12-31T14:47:07.453Z,100330.50
2022-12-31T14:49:33.831Z,100341.13
2022-12-31T14:52:21.360Z,100338.81
2022-12-31T14:55:09.700Z,100339.84
2022-12-31T14:58:17.225Z,100339.97
2022-12-31T15:00:39.803Z,100345.84
2022-12-31T15:03:34.574Z,100352.00
2022-12-31T15:06:18.988Z,100341.41
2022-12-31T15:08:59.945Z,100345.84
2022-12-31T15:11:46.038Z,100346.69
2022-12-31T15:14:24.616Z,100357.69
2022-12-31T15:17:10.769Z,100352.09
2022-12-31T15:19:56.368Z,100343.53
2022-12-31T15:22:46.394Z,100344.22
2022-12-31T15:25:38.452Z,100342.63
2022-12-31T15:28:22.821Z,100340.63
2022-12-31T15:30:50.568Z,100352.53
2022-12-31T15:33:21.872Z,100358.38
2022-12-31T15:35:51.556Z,100344.91
2022-12-31T15:38:30.145Z,100346.38
2022-12-31T15:40:57.106Z,100352.38
2022-12-31T15:43:33.726Z,100351.81
2022-12-31T15:46:01.847Z,100344.66
2022-12-31T15:48:41.731Z,100344.09
2022-12-31T15:51:15.565Z,100349.81
2022-12-31T15:53:46.940Z,100350.97
2022-12-31T15:56:22.387Z,100350.69
2022-12-31T15:58:54.618Z,100344.94
2022-12-31T16:01:24.214Z,100349.50
2022-12-31T16:04:06.888Z,100347.66
2022-12-31T16:06:37.435Z,100359.09
2022-12-31T16:09:08.640Z,100358.97
2022-12-31T16:11:41.778Z,100365.84
2022-12-31T16:14:26.552Z,100365.41
2022-12-31T16:16:58.731Z,100372.13
2022-12-31T16:19:28.385Z,100365.25
2022-12-31T16:21:57.065Z,100367.53
2022-12-31T16:24:37.474Z,100373.44
2022-12-31T16:27:16.817Z,100382.13
2022-12-31T16:29:52.252Z,100378.44
2022-12-31T16:32:22.081Z,100382.72
2022-12-31T16:34:48.700Z,100378.72
2022-12-31T16:37:20.681Z,100382.28
2022-12-31T16:39:56.734Z,100391.44
2022-12-31T16:42:28.615Z,100379.41
2022-12-31T16:44:57.463Z,100385.00
2022-12-31T16:47:36.224Z,100389.28
2022-12-31T16:50:08.038Z,100384.16
2022-12-31T16:52:40.960Z,100391.16
2022-12-31T16:55:10.208Z,100388.88
2022-12-31T16:57:37.344Z,100380.72
2022-12-31T17:00:06.843Z,100374.41
2022-12-31T17:02:44.014Z,100374.13
2022-12-31T17:05:22.296Z,100385.84
2022-12-31T17:07:49.127Z,100382.72
2022-12-31T17:10:15.553Z,100385.28
2022-12-31T17:13:25.593Z,100376.41
2022-12-31T17:15:41.195Z,100377.28
2022-12-31T17:18:08.287Z,100376.13
2022-12-31T17:20:35.020Z,100373.56
2022-12-31T17:23:05.667Z,100382.72
2022-12-31T17:25:35.968Z,100382.72
2022-12-31T17:28:05.456Z,100391.00
2022-12-31T17:30:40.083Z,100385.56
2022-12-31T17:33:12.440Z,100396.44
2022-12-31T17:35:43.673Z,100394.44
2022-12-31T17:38:22.553Z,100389.81
2022-12-31T17:40:52.833Z,100390.66
2022-12-31T17:43:22.212Z,100404.69
2022-12-31T17:45:51.390Z,100401.25
2022-12-31T17:48:20.307Z,100412.97
2022-12-31T17:50:48.976Z,100408.69
2022-12-31T17:53:16.175Z,100405.69
2022-12-31T17:55:48.075Z,100409.56
2022-12-31T17:58:18.462Z,100398.53
2022-12-31T18:00:45.133Z,100399.41
2022-12-31T18:03:11.850Z,100411.75
2022-12-31T18:05:38.453Z,100409.31
2022-12-31T18:08:05.174Z,100405.44
2022-12-31T18:10:36.410Z,100405.84
2022-12-31T18:13:05.687Z,100403.38
2022-12-31T18:15:32.346Z,100407.13
2022-12-31T18:17:58.893Z,100403.13
2022-12-31T18:20:26.325Z,100416.72
2022-12-31T18:22:52.970Z,100418.91
2022-12-31T18:25:22.422Z,100411.63
2022-12-31T18:27:52.216Z,100409.91
2022-12-31T18:30:19.996Z,100419.50
2022-12-31T18:32:46.856Z,100431.22
2022-12-31T18:35:48.565Z,100422.66
2022-12-31T18:38:03.697Z,100420.47
2022-12-31T18:40:30.379Z,100433.94
2022-12-31T18:43:02.695Z,100429.81
2022-12-31T18:45:31.303Z,100427.09
2022-12-31T18:47:57.835Z,100429.41
2022-12-31T18:50:24.384Z,100430.81
2022-12-31T18:52:50.865Z,100428.53
2022-12-31T18:55:26.321Z,100430.56
2022-12-31T18:57:53.985Z,100429.13
2022-12-31T19:00:20.689Z,100416.22
2022-12-31T19:02:47.183Z,100414.66
2022-12-31T19:05:23.728Z,100423.41
2022-12-31T19:07:50.172Z,100434.84
2022-12-31T19:10:17.041Z,100428.84
2022-12-31T19:12:44.400Z,100434.41
2022-12-31T19:15:39.153Z,100417.66
2022-12-31T19:18:15.807Z,100432.69
2022-12-31T19:20:43.540Z,100421.38
2022-12-31T19:23:24.009Z,100417.53
2022-12-31T19:25:51.561Z,100437.00
2022-12-31T19:28:24.204Z,100426.13
2022-12-31T19:30:55.762Z,100426.97
2022-12-31T19:33:22.524Z,100413.38
2022-12-31T19:35:49.597Z,100426.25
2022-12-31T19:38:24.341Z,100420.41
2022-12-31T19:40:52.414Z,100423.97
2022-12-31T19:43:21.373Z,100424.25
2022-12-31T19:45:48.860Z,100428.69
2022-12-31T19:48:19.047Z,100422.13
2022-12-31T19:50:48.826Z,100417.69
2022-12-31T19:53:19.647Z,100418.69
2022-12-31T19:55:46.319Z,100420.53
2022-12-31T19:58:19.279Z,100412.53
2022-12-31T20:00:54.567Z,100409.81
2022-12-31T20:03:23.888Z,100431.13
2022-12-31T20:05:50.627Z,100414.66
2022-12-31T20:08:20.249Z,100413.09
2022-12-31T20:10:46.905Z,100419.38
2022-12-31T20:13:13.310Z,100434.28
2022-12-31T20:15:40.444Z,100434.00
2022-12-31T20:18:06.947Z,100436.72
2022-12-31T20:20:33.415Z,100438.41
2022-12-31T20:22:59.942Z,100421.81
2022-12-31T20:25:26.472Z,100418.97
2022-12-31T20:27:54.688Z,100427.84
2022-12-31T20:30:22.954Z,100434.84
2022-12-31T20:32:52.104Z,100413.66
2022-12-31T20:35:19.645Z,100435.41
2022-12-31T20:37:49.148Z,100433.13
2022-12-31T20:40:18.527Z,100445.72
2022-12-31T20:42:47.116Z,100436.84
2022-12-31T20:45:13.710Z,100414.53
2022-12-31T20:47:40.972Z,100423.81
2022-12-31T20:50:12.194Z,100415.94
2022-12-31T20:52:39.239Z,100412.66
2022-12-31T20:55:06.207Z,100413.94
2022-12-31T20:57:35.630Z,100420.81
2022-12-31T21:00:06.614Z,100427.09
2022-12-31T21:02:42.284Z,100430.25
2022-12-31T21:05:09.987Z,100426.97
2022-12-31T21:07:36.595Z,100433.81
2022-12-31T21:10:03.544Z,100426.38
2022-12-31T21:12:45.571Z,100421.09
2022-12-31T21:15:13.708Z,100424.41
2022-12-31T21:17:42.093Z,100439.44
2022-12-31T21:20:14.717Z,100432.53
2022-12-31T21:22:41.207Z,100439.56
2022-12-31T21:25:07.893Z,100432.84
2022-12-31T21:27:35.825Z,100423.97
2022-12-31T21:30:18.440Z,100427.09
2022-12-31T21:32:45.698Z,100421.81
2022-12-31T21:35:42.324Z,100424.81
2022-12-31T21:38:07.578Z,100436.56
2022-12-31T21:40:34.230Z,100434.00
2022-12-31T21:43:00.782Z,100442.72
2022-12-31T21:45:27.234Z,100444.44
2022-12-31T21:48:12.196Z,100438.44
2022-12-31T21:50:38.581Z,100449.31
2022-12-31T21:53:04.982Z,100434.28
2022-12-31T21:55:50.129Z,100451.72
2022-12-31T21:58:26.503Z,100453.44
2022-12-31T22:01:13.741Z,100460.88
2022-12-31T22:03:40.886Z,100444.00
2022-12-31T22:06:14.309Z,100433.97
2022-12-31T22:08:45.560Z,100436.84
2022-12-31T22:11:13.156Z,100438.84
2022-12-31T22:13:40.095Z,100453.44
2022-12-31T22:16:07.745Z,100472.06
2022-12-31T22:18:38.714Z,100451.72
2022-12-31T22:21:18.294Z,100458.75
2022-12-31T22:23:47.039Z,100482.94
2022-12-31T22:26:15.649Z,100476.22
2022-12-31T22:28:43.832Z,100482.22
2022-12-31T22:31:21.114Z,100482.78
2022-12-31T22:33:48.175Z,100483.38
2022-12-31T22:36:17.950Z,100488.09
2022-12-31T22:38:48.509Z,100495.53
2022-12-31T22:41:18.474Z,100497.81
2022-12-31T22:43:57.197Z,100507.69
2022-12-31T22:46:28.493Z,100508.97
2022-12-31T22:48:58.307Z,100517.72
2022-12-31T22:51:25.690Z,100510.97
2022-12-31T22:53:55.974Z,100502.69
2022-12-31T22:56:22.460Z,100506.41
2022-12-31T22:58:49.166Z,100505.97
2022-12-31T23:01:19.653Z,100506.69
2022-12-31T23:03:48.252Z,100497.97
2022-12-31T23:06:15.375Z,100492.66
2022-12-31T23:09:02.115Z,100504.41
2022-12-31T23:11:29.192Z,100521.16
2022-12-31T23:14:13.978Z,100515.13
2022-12-31T23:16:59.264Z,100512.13
2022-12-31T23:20:04.252Z,100513.41
2022-12-31T23:22:49.100Z,100512.41
2022-12-31T23:25:15.695Z,100513.56
2022-12-31T23:27:42.207Z,100520.56
2022-12-31T23:30:09.142Z,100521.72
2022-12-31T23:32:35.613Z,100515.28
2022-12-31T23:35:07.807Z,100519.84
2022-12-31T23:37:36.309Z,100522.44
2022-12-31T23:40:02.734Z,100521.41
2022-12-31T23:42:29.161Z,100511.25
2022-12-31T23:44:55.559Z,100524.44
2022-12-31T23:47:22.030Z,100528.00
2022-12-31T23:49:48.518Z,100528.44
2022-12-31T23:52:14.973Z,100535.56
2022-12-31T23:54:41.482Z,100532.00
2022-12-31T23:57:08.104Z,100542.88
2022-12-31T23:59:34.549Z,100551.03
